ADDS METAR Data INFO
IDs: Format: Raw Decoded Include TAF

Data at: 0325 UTC 19 Jul 2018

KVES 190315Z AUTO 07003KT 10SM CLR 19/14 A3006 RMK AO2
KVES 190255Z AUTO 08003KT 10SM CLR 20/14 A3006 RMK AO2
KVES 190235Z AUTO 00000KT 10SM CLR 20/14 A3006 RMK AO2
KVES 190215Z AUTO 00000KT 10SM CLR 18/15 A3005 RMK AO2
KVES 190155Z AUTO 05003KT 10SM CLR 18/15 A3005 RMK AO2
KVES 190135Z AUTO 00000KT 10SM CLR 20/15 A3004 RMK AO2
KVES 190115Z AUTO 05003KT 10SM CLR 20/15 A3004 RMK AO2
KVES 190055Z AUTO 00000KT 10SM SCT060 22/14 A3004 RMK AO2
KVES 190035Z AUTO 00000KT 10SM SCT060 23/14 A3004 RMK AO2
KVES 190015Z AUTO 00000KT 10SM BKN060 23/15 A3003 RMK AO2
KVES 182355Z AUTO 00000KT 10SM BKN060 24/15 A3003 RMK AO2
KVES 182335Z AUTO 00000KT 10SM SCT060 25/13 A3003 RMK AO2
KVES 182315Z AUTO 00000KT 7SM BKN060 26/13 A3003 RMK AO2
KVES 182255Z AUTO 11005KT 10SM OVC070 27/12 A3003 RMK AO2
KVES 182235Z AUTO 00000KT 10SM BKN070 27/13 A3003 RMK AO2
KVES 182215Z AUTO 00000KT 10SM CLR 27/13 A3004 RMK AO2
KVES 182155Z AUTO 00000KT 7SM CLR 26/13 A3004 RMK AO2
KVES 182135Z AUTO 00000KT 10SM SCT070 26/14 A3005 RMK AO2
KVES 182115Z AUTO 05003KT 10SM OVC070 27/13 A3005 RMK AO2
KVES 182055Z AUTO 06005KT 10SM OVC070 28/13 A3005 RMK AO2
KVES 182035Z AUTO 00000KT 10SM OVC060 27/12 A3006 RMK AO2
KVES 182015Z AUTO 00000KT 10SM OVC060 26/13 A3006 RMK AO2
KVES 181955Z AUTO 00000KT 10SM BKN060 26/13 A3006 RMK AO2
KVES 181935Z AUTO 00000KT 7SM BKN060 26/13 A3007 RMK AO2
KVES 181915Z AUTO 08004KT 10SM BKN060 26/13 A3007 RMK AO2
KVES 181855Z AUTO 00000KT 10SM CLR 26/12 A3007 RMK AO2
KVES 181835Z AUTO 00000KT 10SM SCT065 27/13 A3008 RMK AO2
KVES 181815Z AUTO 07005KT 10SM SCT065 27/13 A3007 RMK AO2
KVES 181755Z AUTO 09006KT 10SM SCT055 26/13 A3008 RMK AO2
KVES 181735Z AUTO 07006KT 10SM BKN055 26/12 A3008 RMK AO2
KVES 181715Z AUTO 05006KT 10SM BKN055 26/13 A3009 RMK AO2
KVES 181655Z AUTO 00000KT 10SM BKN055 26/13 A3010 RMK AO2
KVES 181635Z AUTO 02003KT 10SM BKN055 25/13 A3010 RMK AO2
KVES 181615Z AUTO 00000KT 10SM SCT055 25/12 A3010 RMK AO2
KVES 181555Z AUTO 11004KT 10SM SCT055 25/13 A3010 RMK AO2
KVES 181535Z AUTO 10005KT 10SM SCT047 25/13 A3009 RMK AO2
KVES 181515Z AUTO 11007KT 10SM CLR 25/15 A3009 RMK AO2
KVES 181455Z AUTO 13003KT 10SM CLR 24/15 A3009 RMK AO2
KVES 181435Z AUTO 09004KT 10SM CLR 24/16 A3009 RMK AO2
KVES 181415Z AUTO 09003KT 10SM CLR 23/16 A3009 RMK AO2
KVES 181355Z AUTO 11004KT 10SM CLR 22/16 A3010 RMK AO2
KVES 181335Z AUTO 07003KT 10SM CLR 21/15 A3010 RMK AO2
KVES 181315Z AUTO 06003KT 10SM CLR 20/16 A3010 RMK AO2
KVES 181255Z AUTO 03004KT 10SM CLR 18/16 A3010 RMK AO2
KVES 181235Z AUTO 04005KT 10SM CLR 18/16 A3009 RMK AO2
KVES 181215Z AUTO 01003KT 10SM CLR 16/16 A3010 RMK AO2
KVES 181155Z AUTO 00000KT 10SM CLR 15/15 A3009 RMK AO2
KVES 181135Z AUTO 00000KT 10SM CLR 14/14 A3009 RMK AO2
KVES 181115Z AUTO 00000KT 10SM CLR 13/13 A3009 RMK AO2
KVES 181055Z AUTO 00000KT 10SM CLR 13/13 A3008 RMK AO2
KVES 181035Z AUTO 00000KT 10SM CLR 12/12 A3007 RMK AO2
KVES 181015Z AUTO 00000KT 10SM CLR 12/12 A3007 RMK AO2
KVES 180955Z AUTO 00000KT 10SM CLR 13/13 A3007 RMK AO2
KVES 180935Z AUTO 00000KT 10SM CLR 12/12 A3007 RMK AO2
KVES 180915Z AUTO 34003KT 10SM CLR 13/13 A3006 RMK AO2
KVES 180855Z AUTO 00000KT 10SM CLR 13/13 A3006 RMK AO2
KVES 180835Z AUTO 33003KT 10SM CLR 13/13 A3006 RMK AO2
KVES 180815Z AUTO 00000KT 10SM CLR 13/13 A3007 RMK AO2
KVES 180755Z AUTO 33003KT 10SM CLR 14/14 A3007 RMK AO2
KVES 180735Z AUTO 00000KT 10SM CLR 14/14 A3007 RMK AO2
KVES 180715Z AUTO 31003KT 10SM CLR 13/13 A3007 RMK AO2
KVES 180655Z AUTO 34003KT 10SM CLR 15/14 A3007 RMK AO2
KVES 180635Z AUTO 00000KT 10SM CLR 14/14 A3007 RMK AO2
KVES 180615Z AUTO 32003KT 10SM CLR 15/14 A3007 RMK AO2
KVES 180555Z AUTO 33003KT 10SM CLR 15/14 A3007 RMK AO2
KVES 180535Z AUTO 33004KT 10SM CLR 15/15 A3006 RMK AO2
KVES 180515Z AUTO 34003KT 10SM CLR 16/15 A3007 RMK AO2
KVES 180455Z AUTO 32003KT 10SM SCT060 16/15 A3006 RMK AO2
KVES 180435Z AUTO 00000KT 10SM SCT060 16/15 A3006 RMK AO2
KVES 180415Z AUTO 33004KT 10SM CLR 16/15 A3006 RMK AO2
KVES 180355Z AUTO 00000KT 10SM CLR 17/15 A3006 RMK AO2
KVES 180335Z AUTO 33004KT 10SM CLR 17/15 A3006 RMK AO2
KVES 180315Z AUTO 33004KT 10SM CLR 17/16 A3006 RMK AO2
KVES 180255Z AUTO 32004KT 10SM CLR 17/16 A3006 RMK AO2
KVES 180235Z AUTO 33003KT 10SM CLR 18/16 A3005 RMK AO2
KVES 180215Z AUTO 33004KT 10SM CLR 20/15 A3004 RMK AO2
KVES 180155Z AUTO 33005KT 10SM SCT060 20/16 A3004 RMK AO2
KVES 180135Z AUTO 32004KT 10SM SCT060 20/17 A3003 RMK AO2
KVES 180115Z AUTO 33004KT 10SM BKN060 21/17 A3002 RMK AO2
KVES 180055Z AUTO 32003KT 10SM SCT060 BKN070 21/17 A3002 RMK AO2
KVES 180035Z AUTO 31003KT 10SM SCT060 22/16 A3001 RMK AO2
KVES 180015Z AUTO 31003KT 10SM CLR 23/16 A3002 RMK AO2
KVES 172355Z AUTO 31003KT 10SM CLR 25/15 A3001 RMK AO2
KVES 172335Z AUTO 32004KT 10SM CLR 25/15 A3001 RMK AO2
KVES 172315Z AUTO 35006KT 10SM CLR 26/15 A3001 RMK AO2
KVES 172255Z AUTO 35007KT 10SM CLR 26/15 A3001 RMK AO2
KVES 172235Z AUTO 35007G16KT 10SM SCT060 26/15 A3000 RMK AO2
KVES 172215Z AUTO 34011G17KT 10SM BKN060 27/16 A3000 RMK AO2
KVES 172155Z AUTO 32007G15KT 10SM SCT060 SCT080 27/15 A3000 RMK AO2
KVES 172130Z AUTO 34009KT 10SM SCT060 SCT080 28/16 A3000 RMK AO2
KVES 172115Z AUTO 33008KT 10SM CLR 28/16 A3000 RMK AO2
KVES 172055Z AUTO 35008G15KT 10SM SCT075 27/15 A3000 RMK AO2
KVES 172035Z AUTO 33009G14KT 10SM SCT065 SCT075 27/14 A3001 RMK AO2
KVES 172015Z AUTO 31008KT 10SM SCT070 SCT075 29/16 A3001 RMK AO2
KVES 171955Z AUTO 34008G15KT 10SM SCT070 28/14 A3001 RMK AO2
KVES 171935Z AUTO 33009G14KT 300V360 10SM CLR 29/14 A3001 RMK AO2
KVES 171915Z AUTO 33008G14KT 10SM CLR 28/14 A3001 RMK AO2
KVES 171855Z AUTO 33007G15KT 10SM CLR 28/14 A3002 RMK AO2
KVES 171835Z AUTO 33008G16KT 10SM CLR 28/15 A3002 RMK AO2
KVES 171815Z AUTO 32010G14KT 10SM SCT060 28/16 A3002 RMK AO2
KVES 171755Z AUTO 34007G14KT 310V020 10SM SCT060 28/16 A3002 RMK AO2
KVES 171735Z AUTO 01009G16KT 10SM SCT050 28/16 A3003 RMK AO2
KVES 171715Z AUTO 36008KT 10SM SCT050 27/16 A3003 RMK AO2
KVES 171655Z AUTO 34011KT 10SM SCT050 27/17 A3004 RMK AO2
KVES 171635Z AUTO 33006KT 10SM CLR 27/17 A3004 RMK AO2
KVES 171615Z AUTO 33004KT 10SM CLR 27/17 A3004 RMK AO2
KVES 171555Z AUTO 01005KT 10SM CLR 26/16 A3004 RMK AO2
KVES 171535Z AUTO 34008KT 10SM CLR 26/16 A3004 RMK AO2